createdAt,value
2018-07-22T00:01:49.660Z,21.04
2018-07-22T00:04:18.885Z,21.08
2018-07-22T00:06:48.093Z,21.04
2018-07-22T00:09:17.216Z,21.21
2018-07-22T00:11:46.418Z,21.12
2018-07-22T00:14:15.584Z,21.10
2018-07-22T00:16:44.812Z,21.23
2018-07-22T00:19:13.974Z,21.04
2018-07-22T00:21:43.244Z,21.17
2018-07-22T00:24:12.721Z,21.21
2018-07-22T00:26:41.905Z,21.01
2018-07-22T00:29:11.093Z,21.12
2018-07-22T00:31:40.290Z,21.27
2018-07-22T00:34:09.458Z,21.27
2018-07-22T00:36:38.731Z,21.31
2018-07-22T00:39:10.064Z,21.35
2018-07-22T00:41:39.312Z,21.37
2018-07-22T00:44:08.463Z,21.28
2018-07-22T00:46:37.712Z,21.36
2018-07-22T00:49:06.949Z,21.41
2018-07-22T00:51:36.125Z,21.37
2018-07-22T00:54:05.561Z,21.34
2018-07-22T00:56:35.009Z,21.39
2018-07-22T00:59:04.223Z,21.41
2018-07-22T01:01:33.464Z,21.37
2018-07-22T01:04:02.605Z,21.49
2018-07-22T01:06:31.872Z,21.40
2018-07-22T01:09:01.020Z,21.27
2018-07-22T01:11:30.366Z,21.09
2018-07-22T01:13:59.521Z,21.17
2018-07-22T01:16:28.775Z,20.96
2018-07-22T01:18:58.008Z,20.73
2018-07-22T01:21:27.456Z,20.86
2018-07-22T01:23:56.585Z,20.82
2018-07-22T01:26:25.776Z,20.99
2018-07-22T01:28:55.004Z,20.87
2018-07-22T01:31:24.248Z,21.02
2018-07-22T01:33:54.324Z,21.18
2018-07-22T01:36:23.452Z,21.01
2018-07-22T01:38:52.840Z,20.95
2018-07-22T01:41:22.079Z,20.95
2018-07-22T01:43:51.238Z,21.01
2018-07-22T01:46:20.377Z,21.04
2018-07-22T01:48:49.644Z,21.12
2018-07-22T01:51:18.932Z,21.19
2018-07-22T01:53:48.089Z,21.15
2018-07-22T01:56:17.245Z,21.13
2018-07-22T01:58:46.666Z,21.08
2018-07-22T02:01:15.807Z,21.02
2018-07-22T02:03:44.972Z,20.97
2018-07-22T02:06:14.102Z,21.01
2018-07-22T02:08:43.254Z,21.01
2018-07-22T02:11:12.400Z,20.99
2018-07-22T02:13:42.537Z,20.89
2018-07-22T02:16:11.655Z,21.07
2018-07-22T02:18:40.860Z,20.99
2018-07-22T02:21:09.992Z,20.98
2018-07-22T02:23:39.180Z,20.93
2018-07-22T02:26:08.370Z,20.90
2018-07-22T02:28:37.550Z,20.98
2018-07-22T02:31:06.981Z,21.02
2018-07-22T02:33:37.242Z,20.99
2018-07-22T02:36:06.845Z,20.96
2018-07-22T02:38:36.160Z,21.02
2018-07-22T02:41:05.371Z,20.95
2018-07-22T02:43:34.527Z,21.00
2018-07-22T02:46:03.696Z,20.98
2018-07-22T02:48:32.957Z,21.02
2018-07-22T02:51:02.206Z,21.07
2018-07-22T02:53:31.337Z,21.17
2018-07-22T02:56:00.638Z,19.76
2018-07-22T02:58:29.835Z,21.16
2018-07-22T03:00:58.981Z,21.17
2018-07-22T03:03:28.176Z,21.12
2018-07-22T03:05:57.446Z,21.15
2018-07-22T03:08:26.718Z,21.20
2018-07-22T03:10:55.902Z,21.27
2018-07-22T03:13:25.109Z,21.28
2018-07-22T03:15:54.249Z,21.19
2018-07-22T03:18:23.577Z,21.12
2018-07-22T03:20:52.773Z,21.14
2018-07-22T03:23:21.976Z,21.13
2018-07-22T03:25:51.170Z,21.18
2018-07-22T03:28:20.426Z,21.24
2018-07-22T03:30:49.565Z,21.12
2018-07-22T03:33:18.796Z,21.03
2018-07-22T03:35:47.954Z,20.67
2018-07-22T03:38:17.085Z,20.91
2018-07-22T03:40:46.277Z,20.99
2018-07-22T03:43:15.447Z,21.06
2018-07-22T03:45:50.226Z,21.07
2018-07-22T03:48:19.361Z,21.08
2018-07-22T03:50:48.626Z,21.16
2018-07-22T03:53:17.813Z,21.14
2018-07-22T03:55:47.028Z,21.02
2018-07-22T03:58:16.149Z,20.99
2018-07-22T04:00:45.316Z,21.03
2018-07-22T04:03:14.652Z,21.08
2018-07-22T04:05:44.118Z,21.12
2018-07-22T04:08:13.253Z,21.20
2018-07-22T04:10:42.429Z,21.04
2018-07-22T04:13:11.698Z,20.99
2018-07-22T04:15:40.861Z,20.87
2018-07-22T04:18:10.072Z,20.73
2018-07-22T04:20:39.212Z,20.78
2018-07-22T04:23:08.520Z,20.74
2018-07-22T04:25:37.656Z,20.71
2018-07-22T04:28:06.813Z,20.77
2018-07-22T04:30:35.953Z,20.73
2018-07-22T04:33:05.188Z,20.70
2018-07-22T04:35:34.412Z,20.74
2018-07-22T04:38:03.665Z,20.70
2018-07-22T04:40:32.798Z,20.78
2018-07-22T04:43:02.016Z,20.76
2018-07-22T04:45:31.217Z,20.70
2018-07-22T04:48:00.454Z,20.73
2018-07-22T04:50:29.600Z,20.70
2018-07-22T04:52:58.750Z,20.72
2018-07-22T04:55:27.940Z,20.74
2018-07-22T04:57:57.143Z,20.76
2018-07-22T05:00:26.320Z,20.70
2018-07-22T05:02:55.450Z,20.52
2018-07-22T05:05:24.721Z,20.47
2018-07-22T05:07:53.861Z,20.46
2018-07-22T05:10:23.120Z,20.46
2018-07-22T05:12:52.246Z,20.60
2018-07-22T05:15:21.419Z,20.55
2018-07-22T05:17:50.577Z,20.65
2018-07-22T05:20:19.776Z,20.62
2018-07-22T05:22:48.919Z,20.52
2018-07-22T05:25:18.089Z,20.55
2018-07-22T05:27:47.256Z,20.62
2018-07-22T05:30:16.501Z,20.46
2018-07-22T05:32:45.682Z,20.47
2018-07-22T05:35:14.885Z,20.39
2018-07-22T05:37:44.174Z,20.37
2018-07-22T05:40:13.390Z,20.41
2018-07-22T05:42:42.513Z,20.35
2018-07-22T05:45:11.809Z,20.36
2018-07-22T05:47:41.153Z,20.55
2018-07-22T05:50:10.385Z,20.58
2018-07-22T05:52:39.638Z,20.46
2018-07-22T05:55:08.884Z,20.55
2018-07-22T05:57:38.029Z,20.49
2018-07-22T06:00:08.017Z,20.52
2018-07-22T06:02:37.409Z,20.44
2018-07-22T06:05:06.882Z,20.35
2018-07-22T06:07:36.093Z,20.40
2018-07-22T06:10:06.181Z,20.27
2018-07-22T06:12:35.356Z,20.30
2018-07-22T06:15:05.213Z,20.26
2018-07-22T06:17:34.369Z,20.17
2018-07-22T06:20:03.601Z,20.13
2018-07-22T06:22:32.802Z,20.27
2018-07-22T06:25:02.126Z,20.40
2018-07-22T06:27:31.448Z,20.58
2018-07-22T06:30:00.589Z,20.46
2018-07-22T06:32:29.780Z,20.23
2018-07-22T06:34:59.090Z,20.25
2018-07-22T06:37:28.302Z,20.34
2018-07-22T06:39:57.425Z,20.41
2018-07-22T06:42:26.598Z,20.48
2018-07-22T06:44:56.016Z,20.65
2018-07-22T06:47:25.205Z,20.72
2018-07-22T06:49:54.383Z,20.67
2018-07-22T06:52:23.692Z,20.66
2018-07-22T06:54:53.002Z,20.70
2018-07-22T06:57:22.331Z,20.86
2018-07-22T06:59:51.820Z,20.98
2018-07-22T07:02:21.389Z,21.05
2018-07-22T07:04:50.558Z,21.09
2018-07-22T07:07:19.710Z,21.20
2018-07-22T07:09:48.984Z,21.41
2018-07-22T07:12:18.152Z,21.33
2018-07-22T07:14:47.436Z,21.35
2018-07-22T07:17:16.573Z,21.41
2018-07-22T07:19:45.884Z,21.49
2018-07-22T07:22:15.094Z,21.58
2018-07-22T07:24:44.377Z,21.48
2018-07-22T07:27:13.529Z,21.58
2018-07-22T07:29:42.773Z,21.51
2018-07-22T07:32:12.132Z,21.52
2018-07-22T07:34:41.376Z,21.65
2018-07-22T07:37:10.638Z,21.60
2018-07-22T07:39:39.865Z,21.70
2018-07-22T07:42:10.329Z,21.71
2018-07-22T07:44:39.842Z,21.74
2018-07-22T07:47:09.058Z,21.72
2018-07-22T07:49:38.418Z,21.66
2018-07-22T07:52:07.653Z,21.73
2018-07-22T07:54:37.805Z,21.71
2018-07-22T07:57:06.953Z,21.71
2018-07-22T07:59:36.180Z,21.74
2018-07-22T08:02:05.329Z,21.77
2018-07-22T08:04:34.535Z,21.74
2018-07-22T08:07:03.758Z,21.50
2018-07-22T08:09:33.027Z,21.69
2018-07-22T08:12:02.154Z,21.58
2018-07-22T08:14:31.659Z,21.57
2018-07-22T08:17:01.314Z,21.57
2018-07-22T08:19:30.577Z,21.73
2018-07-22T08:22:00.288Z,21.41
2018-07-22T08:24:29.473Z,21.56
2018-07-22T08:26:58.686Z,21.47
2018-07-22T08:29:30.931Z,21.44
2018-07-22T08:32:00.756Z,21.62
2018-07-22T08:34:30.265Z,21.75
2018-07-22T08:36:59.889Z,21.80
2018-07-22T08:39:30.181Z,21.71
2018-07-22T08:41:59.925Z,21.95
2018-07-22T08:44:29.110Z,22.02
2018-07-22T08:46:58.358Z,21.76
2018-07-22T08:49:27.657Z,22.13
2018-07-22T08:51:56.996Z,22.12
2018-07-22T08:54:26.236Z,22.00
2018-07-22T08:56:55.542Z,22.11
2018-07-22T08:59:24.749Z,22.09
2018-07-22T09:01:54.029Z,22.17
2018-07-22T09:04:23.153Z,22.21
2018-07-22T09:06:52.850Z,21.99
2018-07-22T09:09:22.132Z,22.17
2018-07-22T09:11:51.369Z,22.18
2018-07-22T09:14:20.536Z,22.35
2018-07-22T09:16:49.705Z,22.21
2018-07-22T09:19:18.934Z,22.00
2018-07-22T09:21:48.256Z,21.94
2018-07-22T09:24:18.629Z,21.92
2018-07-22T09:26:47.751Z,21.96
2018-07-22T09:29:17.948Z,21.51
2018-07-22T09:31:47.212Z,21.58
2018-07-22T09:34:16.449Z,22.16
2018-07-22T09:36:45.774Z,22.46
2018-07-22T09:39:15.161Z,22.44
2018-07-22T09:41:44.495Z,22.31
2018-07-22T09:44:14.078Z,22.40
2018-07-22T09:46:43.488Z,22.49
2018-07-22T09:49:12.892Z,22.45
2018-07-22T09:51:42.228Z,22.52
2018-07-22T09:54:11.555Z,22.06
2018-07-22T09:56:41.107Z,22.20
2018-07-22T09:59:10.506Z,22.44
2018-07-22T10:01:39.851Z,22.52
2018-07-22T10:04:09.406Z,22.56
2018-07-22T10:06:38.889Z,22.17
2018-07-22T10:09:10.062Z,22.11
2018-07-22T10:11:39.711Z,21.85
2018-07-22T10:14:10.981Z,21.91
2018-07-22T10:16:40.273Z,21.81
2018-07-22T10:19:09.743Z,22.09
2018-07-22T10:21:39.358Z,22.02
2018-07-22T10:24:08.667Z,22.07
2018-07-22T10:26:38.105Z,22.23
2018-07-22T10:29:08.250Z,22.27
2018-07-22T10:31:37.673Z,22.32
2018-07-22T10:34:07.054Z,22.34
2018-07-22T10:36:36.640Z,22.68
2018-07-22T10:39:08.696Z,22.63
2018-07-22T10:41:38.063Z,22.79
2018-07-22T10:44:07.337Z,22.63
2018-07-22T10:46:37.121Z,22.74
2018-07-22T10:49:06.667Z,23.11
2018-07-22T10:51:37.095Z,23.11
2018-07-22T10:54:09.530Z,23.34
2018-07-22T10:56:40.005Z,23.21
2018-07-22T10:59:09.504Z,23.45
2018-07-22T11:01:40.012Z,23.60
2018-07-22T11:04:09.266Z,23.80
2018-07-22T11:06:38.584Z,23.42
2018-07-22T11:09:09.081Z,23.53
2018-07-22T11:11:38.806Z,23.35
2018-07-22T11:14:08.366Z,23.24
2018-07-22T11:16:40.570Z,23.56
2018-07-22T11:19:10.709Z,23.37
2018-07-22T11:21:40.217Z,23.73
2018-07-22T11:24:09.495Z,23.84
2018-07-22T11:26:38.769Z,23.83
2018-07-22T11:29:08.122Z,23.94
2018-07-22T11:31:37.358Z,24.10
2018-07-22T11:34:06.796Z,24.17
2018-07-22T11:36:35.953Z,24.12
2018-07-22T11:39:07.909Z,23.77
2018-07-22T11:41:37.897Z,23.97
2018-07-22T11:44:07.792Z,24.26
2018-07-22T11:46:38.094Z,24.04
2018-07-22T11:49:07.609Z,23.94
2018-07-22T11:51:37.713Z,24.01
2018-07-22T11:54:07.224Z,24.65
2018-07-22T11:56:36.388Z,24.33
2018-07-22T11:59:06.783Z,24.25
2018-07-22T12:01:36.029Z,24.58
2018-07-22T12:04:05.312Z,24.35
2018-07-22T12:06:34.780Z,24.58
2018-07-22T12:09:05.177Z,24.76
2018-07-22T12:11:34.342Z,24.72
2018-07-22T12:14:03.618Z,24.80
2018-07-22T12:16:33.090Z,24.77
2018-07-22T12:19:02.510Z,24.98
2018-07-22T12:21:31.859Z,25.35
2018-07-22T12:24:01.105Z,25.32
2018-07-22T12:26:30.261Z,25.55
2018-07-22T12:28:59.496Z,25.29
2018-07-22T12:31:28.726Z,25.24
2018-07-22T12:33:58.210Z,24.92
2018-07-22T12:36:27.502Z,25.31
2018-07-22T12:38:56.880Z,25.31
2018-07-22T12:41:26.213Z,25.13
2018-07-22T12:43:56.262Z,25.26
2018-07-22T12:46:25.559Z,25.50
2018-07-22T12:48:54.785Z,25.42
2018-07-22T12:51:24.230Z,25.57
2018-07-22T12:53:53.681Z,25.74
2018-07-22T12:56:23.433Z,25.79
2018-07-22T12:58:52.917Z,25.99
2018-07-22T13:01:22.276Z,25.84
2018-07-22T13:03:51.631Z,25.94
2018-07-22T13:06:20.889Z,25.95
2018-07-22T13:08:50.120Z,26.09
2018-07-22T13:11:19.408Z,26.40
2018-07-22T13:13:48.513Z,26.55
2018-07-22T13:16:18.070Z,26.29
2018-07-22T13:18:47.231Z,26.48
2018-07-22T13:21:17.263Z,27.07
2018-07-22T13:23:46.846Z,27.08
2018-07-22T13:26:16.158Z,27.25
2018-07-22T13:28:45.423Z,27.42
2018-07-22T13:31:14.624Z,27.60
2018-07-22T13:33:43.750Z,27.50
2018-07-22T13:36:13.025Z,27.35
2018-07-22T13:38:42.220Z,27.24
2018-07-22T13:41:11.418Z,27.31
2018-07-22T13:43:40.708Z,27.84
2018-07-22T13:46:10.032Z,27.88
2018-07-22T13:48:39.260Z,27.99
2018-07-22T13:51:08.549Z,28.00
2018-07-22T13:53:37.714Z,28.10
2018-07-22T13:56:06.946Z,28.32
2018-07-22T13:58:36.172Z,28.61
2018-07-22T14:01:05.497Z,29.00
2018-07-22T14:03:34.706Z,28.85
2018-07-22T14:06:04.034Z,28.97
2018-07-22T14:08:33.261Z,29.20
2018-07-22T14:11:02.503Z,29.14
2018-07-22T14:13:31.725Z,26.27
2018-07-22T14:16:01.003Z,29.10
2018-07-22T14:18:30.170Z,28.97
2018-07-22T14:21:00.458Z,28.73
2018-07-22T14:23:29.737Z,28.39
2018-07-22T14:25:58.982Z,28.47
2018-07-22T14:28:28.219Z,28.46
2018-07-22T14:30:57.417Z,28.41
2018-07-22T14:33:26.732Z,28.57
2018-07-22T14:35:56.573Z,28.78
2018-07-22T14:38:27.565Z,28.75
2018-07-22T14:40:57.429Z,29.02
2018-07-22T14:43:26.910Z,29.10
2018-07-22T14:45:56.078Z,29.04
2018-07-22T14:48:26.316Z,29.35
2018-07-22T14:50:55.670Z,29.49
2018-07-22T14:53:24.844Z,29.03
2018-07-22T14:55:54.225Z,28.99
2018-07-22T14:58:23.462Z,29.25
2018-07-22T15:00:52.764Z,29.47
2018-07-22T15:03:21.956Z,29.10
2018-07-22T15:05:51.193Z,29.48
2018-07-22T15:08:20.509Z,29.37
2018-07-22T15:10:49.815Z,29.35
2018-07-22T15:13:18.948Z,29.26
2018-07-22T15:15:48.135Z,29.09
2018-07-22T15:18:17.501Z,29.08
2018-07-22T15:20:46.745Z,29.14
2018-07-22T15:23:16.001Z,29.52
2018-07-22T15:25:45.300Z,29.61
2018-07-22T15:28:15.151Z,29.28
2018-07-22T15:30:44.851Z,29.54
2018-07-22T15:33:14.055Z,29.70
2018-07-22T15:35:43.401Z,29.63
2018-07-22T15:38:12.816Z,29.11
2018-07-22T15:40:42.068Z,29.28
2018-07-22T15:43:11.361Z,29.78
2018-07-22T15:45:40.702Z,29.75
2018-07-22T15:48:10.034Z,29.79
2018-07-22T15:50:39.280Z,29.74
2018-07-22T15:53:08.596Z,29.62
2018-07-22T15:55:38.036Z,30.13
2018-07-22T15:58:07.205Z,30.02
2018-07-22T16:00:36.560Z,30.07
2018-07-22T16:03:05.883Z,29.94
2018-07-22T16:05:35.164Z,30.01
2018-07-22T16:08:04.513Z,30.18
2018-07-22T16:10:33.820Z,30.11
2018-07-22T16:13:03.201Z,29.81
2018-07-22T16:15:32.484Z,29.44
2018-07-22T16:18:01.821Z,29.28
2018-07-22T16:20:31.056Z,28.88
2018-07-22T16:23:00.611Z,28.87
2018-07-22T16:25:30.053Z,28.88
2018-07-22T16:27:59.364Z,29.09
2018-07-22T16:30:28.706Z,29.20
2018-07-22T16:32:58.032Z,29.09
2018-07-22T16:35:27.529Z,29.05
2018-07-22T16:37:56.927Z,29.40
2018-07-22T16:40:26.436Z,29.12
2018-07-22T16:42:55.642Z,29.00
2018-07-22T16:45:25.005Z,28.79
2018-07-22T16:47:54.252Z,29.18
2018-07-22T16:50:24.444Z,29.29
2018-07-22T16:52:53.653Z,29.43
2018-07-22T16:55:22.910Z,29.48
2018-07-22T16:57:52.225Z,29.11
2018-07-22T17:00:21.653Z,28.04
2018-07-22T17:02:50.906Z,29.19
2018-07-22T17:05:20.156Z,29.26
2018-07-22T17:07:49.761Z,28.89
2018-07-22T17:10:19.172Z,28.91
2018-07-22T17:12:48.689Z,28.27
2018-07-22T17:15:18.385Z,28.11
2018-07-22T17:17:47.678Z,28.16
2018-07-22T17:20:16.856Z,28.05
2018-07-22T17:22:46.108Z,27.60
2018-07-22T17:25:15.319Z,27.56
2018-07-22T17:27:44.652Z,27.25
2018-07-22T17:30:13.914Z,26.95
2018-07-22T17:32:43.239Z,27.24
2018-07-22T17:35:12.576Z,27.07
2018-07-22T17:37:41.980Z,26.70
2018-07-22T17:40:11.177Z,26.62
2018-07-22T17:42:40.507Z,26.76
2018-07-22T17:45:09.754Z,26.97
2018-07-22T17:47:39.081Z,26.85
2018-07-22T17:50:08.456Z,27.03
2018-07-22T17:52:37.751Z,26.97
2018-07-22T17:55:07.194Z,26.96
2018-07-22T17:57:36.552Z,27.10
2018-07-22T18:00:06.070Z,21.26
2018-07-22T18:02:35.335Z,27.30
2018-07-22T18:07:54.634Z,26.99
2018-07-22T18:10:24.002Z,26.91
2018-07-22T18:12:54.339Z,26.69
2018-07-22T18:15:23.508Z,26.62
2018-07-22T18:17:52.857Z,26.80
2018-07-22T18:20:22.048Z,26.85
2018-07-22T18:22:51.382Z,26.55
2018-07-22T18:25:20.695Z,26.46
2018-07-22T18:27:50.065Z,26.45
2018-07-22T18:30:19.312Z,26.42
2018-07-22T18:32:48.668Z,26.42
2018-07-22T18:35:17.841Z,26.42
2018-07-22T18:37:47.412Z,26.42
2018-07-22T18:40:16.733Z,26.44
2018-07-22T18:42:46.000Z,26.41
2018-07-22T18:45:15.364Z,26.32
2018-07-22T18:47:44.770Z,26.25
2018-07-22T18:50:14.065Z,26.12
2018-07-22T18:52:43.476Z,25.99
2018-07-22T18:55:12.669Z,25.88
2018-07-22T18:57:41.912Z,25.74
2018-07-22T19:00:11.180Z,25.47
2018-07-22T19:02:40.424Z,25.23
2018-07-22T19:05:09.734Z,25.19
2018-07-22T19:07:39.018Z,25.18
2018-07-22T19:10:08.702Z,25.16
2018-07-22T19:12:37.893Z,25.12
2018-07-22T19:15:07.161Z,25.08
2018-07-22T19:17:36.482Z,25.08
2018-07-22T19:20:06.120Z,24.77
2018-07-22T19:22:35.372Z,24.55
2018-07-22T19:25:04.702Z,24.68
2018-07-22T19:27:33.892Z,24.74
2018-07-22T19:30:03.229Z,24.76
2018-07-22T19:32:32.568Z,24.74
2018-07-22T19:35:02.044Z,23.01
2018-07-22T19:37:31.338Z,24.57
2018-07-22T19:40:00.698Z,24.57
2018-07-22T19:42:29.884Z,24.47
2018-07-22T19:44:59.125Z,24.50
2018-07-22T19:47:28.525Z,24.51
2018-07-22T19:49:57.808Z,24.41
2018-07-22T19:52:27.152Z,24.38
2018-07-22T19:54:56.468Z,24.37
2018-07-22T19:57:25.762Z,24.29
2018-07-22T19:59:55.090Z,24.17
2018-07-22T20:02:24.341Z,24.16
2018-07-22T20:04:53.689Z,24.18
2018-07-22T20:07:22.870Z,24.12
2018-07-22T20:09:52.169Z,23.90
2018-07-22T20:12:21.399Z,23.94
2018-07-22T20:14:50.666Z,23.89
2018-07-22T20:17:19.800Z,23.94
2018-07-22T20:19:49.056Z,23.93
2018-07-22T20:22:18.356Z,23.96
2018-07-22T20:24:47.600Z,23.97
2018-07-22T20:27:16.825Z,23.85
2018-07-22T20:29:46.063Z,23.76
2018-07-22T20:32:15.333Z,23.78
2018-07-22T20:34:44.823Z,23.81
2018-07-22T20:37:14.868Z,23.78
2018-07-22T20:39:44.361Z,23.78
2018-07-22T20:42:13.554Z,23.75
2018-07-22T20:44:42.878Z,23.78
2018-07-22T20:47:12.183Z,23.75
2018-07-22T20:49:41.365Z,23.75
2018-07-22T20:52:10.737Z,23.78
2018-07-22T20:54:40.037Z,23.80
2018-07-22T20:57:09.583Z,23.70
2018-07-22T20:59:38.986Z,23.67
2018-07-22T21:02:08.444Z,23.66
2018-07-22T21:04:38.115Z,23.66
2018-07-22T21:07:07.385Z,23.61
2018-07-22T21:09:37.016Z,23.64
2018-07-22T21:12:44.818Z,23.66
2018-07-22T21:15:15.033Z,23.54
2018-07-22T21:17:46.107Z,23.56
2018-07-22T21:20:16.263Z,23.57
2018-07-22T21:22:45.774Z,23.53
2018-07-22T21:25:15.662Z,23.49
2018-07-22T21:27:45.504Z,23.51
2018-07-22T21:30:15.286Z,23.52
2018-07-22T21:32:44.792Z,23.44
2018-07-22T21:35:14.151Z,23.42
2018-07-22T21:37:43.740Z,23.46
2018-07-22T21:40:13.260Z,23.46
2018-07-22T21:42:42.568Z,23.45
2018-07-22T21:45:11.866Z,23.41
2018-07-22T21:47:42.224Z,23.32
2018-07-22T21:50:11.590Z,23.40
2018-07-22T21:52:40.895Z,23.25
2018-07-22T21:55:10.405Z,23.16
2018-07-22T21:57:39.698Z,23.12
2018-07-22T22:00:19.814Z,22.97
2018-07-22T22:02:49.254Z,22.95
2018-07-22T22:05:18.573Z,23.00
2018-07-22T22:07:47.997Z,22.98
2018-07-22T22:10:17.328Z,22.74
2018-07-22T22:12:46.676Z,22.72
2018-07-22T22:15:21.233Z,22.80
2018-07-22T22:17:50.540Z,22.76
2018-07-22T22:20:20.980Z,22.71
2018-07-22T22:22:50.501Z,22.67
2018-07-22T22:25:20.006Z,22.59
2018-07-22T22:27:49.401Z,22.63
2018-07-22T22:30:19.215Z,22.70
2018-07-22T22:32:48.932Z,22.68
2018-07-22T22:35:18.204Z,22.51
2018-07-22T22:37:47.727Z,22.47
2018-07-22T22:40:17.244Z,22.43
2018-07-22T22:42:47.460Z,22.38
2018-07-22T22:45:16.870Z,22.35
2018-07-22T22:47:46.137Z,22.32
2018-07-22T22:50:15.529Z,22.24
2018-07-22T22:52:44.798Z,22.16
2018-07-22T22:55:14.088Z,22.14
2018-07-22T22:58:52.376Z,22.16
2018-07-22T23:01:21.761Z,21.98
2018-07-22T23:03:50.989Z,21.92
2018-07-22T23:06:20.154Z,21.89
2018-07-22T23:08:49.492Z,21.89
2018-07-22T23:11:18.631Z,21.91
2018-07-22T23:13:47.951Z,21.79
2018-07-22T23:16:17.262Z,21.78
2018-07-22T23:18:46.645Z,21.92
2018-07-22T23:21:15.805Z,21.71
2018-07-22T23:23:45.046Z,21.66
2018-07-22T23:26:14.216Z,21.62
2018-07-22T23:28:43.377Z,21.58
2018-07-22T23:31:12.518Z,21.50
2018-07-22T23:33:41.737Z,21.47
2018-07-22T23:36:11.136Z,21.48
2018-07-22T23:38:40.322Z,21.45
2018-07-22T23:41:09.481Z,21.47
2018-07-22T23:43:38.685Z,21.45
2018-07-22T23:46:07.916Z,21.44
2018-07-22T23:48:37.346Z,21.39
2018-07-22T23:51:06.863Z,21.32
2018-07-22T23:53:36.084Z,21.31
2018-07-22T23:56:05.352Z,21.30
2018-07-22T23:58:34.576Z,21.22
